Ana Sayfa
METAR-TAF:

METAR-TAF

Havaalanları :

Butte, Montana, Amerika Birleşik Devletleri

Enlem: 45-57-17N, Boylam: 112-29-51W, yükseklik: 1690 m

Güncel hava durumu gözlemi

Rapor saat 11:18 UTC de 53 dakika önce yapıldı.
Rüzgar batı/kuzeybatıdan 7 kt
Sıcaklık -3°C
Nem 86%
Basınç 1018 hPa
Görüş mesafesi: 12.9 km
2400 ft yükseklikte az bulutlu
3300 ft yükseklikte çok bulutlu

METAR: KBTM 171118Z AUTO 29007KT 8SM FEW024 OVC033 M03/M05 A3007 RMK AO2 SNE18 P0000 T10281050

Saat: 06:11 (12:11 UTC)

Tahmin

Rapor saat 11:52 UTC de 19 dakika önce yapıldı.
Ayın 17'si saat 12 UTC'den ayın 18'si saat 12 UTC'ye kadar geçerli Tahmin
Rüzgar batı/kuzeybatıdan 9 kt
Görüş mesafesi: 9.7 km
3500 ft yükseklikte çok bulutlu
hafif kar
Ayın 17'si saat 1700 UTC'den
Rüzgar kuzeybatıdan 9 kt
Görüş mesafesi: 10 km
4000 ft yükseklikte parçalı çok bulutlu
Civarda sağanaklar,

TAF: KBTM 171152Z 1712/1812 29009KT 6SM -SN OVC035 FM171700 32009KT P6SM VCSH BKN040

4.000'den fazla havaalanı için hava durumu gözlemleri ve tahminleri (METAR ve TAF raporları).

Kullanılabilir istasyonlar harita üzerinde sarı ve kırmızı noktalarla gösterilir.

İstasyonun adını görmek için fareyi noktanın üzerinde gezdirin.

Sonrasında hava gözlem ve tahminlerini görmek için tıklayın.

Haritayı değiştirmek için: yaklaştırmak için siyah artı işaretli yeşil düğmeye ve uzaklaştırmak için de eksi işaretli düğmeye hızla tıklayın; bitişik haritalar için yeşil okları kullanın.


METAR-TAF: